Jonesboro, AR (72401)

12:21 AM CDT on August 30, 2015 (GMT -0500)
South Jonesboro | | Change Station
CLOSE
Current Station
Personal Weather Station
Location: Jonesboro, AR
Elevation: 358 ft
Nearby Weather Stations

Elev 358 ft 35.82 °N, 90.73 °W | Updated 10 minutes ago

Mostly Cloudy
Mostly Cloudy
73.9 °F
Feels Like 73 °F
N
0.0
Wind Variable Wind from WNW

Today
High -- | Low -- °F
--% Chance of Precip.
Yesterday
High -- | Low -- °F
Precip. -- in
6:33 AM 7:33 PM
Full, 100% visible
Pressure 30.02 in
Visibility 10.0 miles
Clouds Mostly Cloudy 9000 ft
Heat Index 73 °F
Dew Point 70 °F
Humidity 87%
Rainfall in
Snow Depth Not available.
UV 0 out of 12
Pollen 9.20 out of 12
Air Quality Not available.
Flu Activity Not available.
METAR KJBR 300453Z AUTO 00000KT 10SM BKN090 22/21 A3002 RMK AO2 SLP164 T02170206
Pressure 30.02 in
Visibility 10.0 miles
Clouds Mostly Cloudy 9000 ft
Heat Index 73 °F
Dew Point 70 °F
Humidity 87%
Rainfall in
Snow Depth Not available.
UV 0 out of 12
Pollen 9.20 out of 12
Air Quality Not available.
Flu Activity Not available.
METAR KJBR 300453Z AUTO 00000KT 10SM BKN090 22/21 A3002 RMK AO2 SLP164 T02170206

10-Day Weather Forecast

×

Almanac

Astronomy

Aug. 30, 2015 Rise Set
Actual Time
Civil Twilight
Nautical Twilight
Astronomical Twilight
Moon
Length of Visible Light
Length of Day
Tomorrow will be .
, % of the Moon is Illuminated

Today's Extremes

State Highs State Lows

Community

WunderPhotos

Upload Photos

1,850,895 photos uploaded!

WunderBlogs® & News

Nearby

Air Quality

  Air Quality AQ Index Pollutant
Not available.

Snow Depth

Station Depth Elevation

Earthquake Activity

City Distance Mag. Time & Date
Minimum magnitude displayed is 2.5.

Coastal Water Temperatures

Place Temperature

Stations

Nearby Weather Stations

Station Location Temp. Windchill Dew Point Humidity Wind Precip. Elev Updated Type